sensor_id;sensor_type;location;lat;lon;timestamp;P1;durP1;ratioP1;P2;durP2;ratioP2
1048;SDS011;513;51.444;7.196;2023-09-07T00:01:14;5.97;;;4.32;;
1048;SDS011;513;51.444;7.196;2023-09-07T00:03:41;7.07;;;4.50;;
1048;SDS011;513;51.444;7.196;2023-09-07T00:06:08;6.82;;;4.50;;
1048;SDS011;513;51.444;7.196;2023-09-07T00:08:35;5.15;;;4.20;;
1048;SDS011;513;51.444;7.196;2023-09-07T00:11:04;6.07;;;4.65;;
1048;SDS011;513;51.444;7.196;2023-09-07T00:13:31;7.88;;;4.22;;
1048;SDS011;513;51.444;7.196;2023-09-07T00:15:58;5.90;;;4.50;;
1048;SDS011;513;51.444;7.196;2023-09-07T00:18:26;6.57;;;4.25;;
1048;SDS011;513;51.444;7.196;2023-09-07T00:20:53;7.57;;;4.20;;
1048;SDS011;513;51.444;7.196;2023-09-07T00:23:20;5.43;;;4.20;;
1048;SDS011;513;51.444;7.196;2023-09-07T00:25:47;6.77;;;4.07;;
1048;SDS011;513;51.444;7.196;2023-09-07T00:28:15;6.32;;;4.22;;
1048;SDS011;513;51.444;7.196;2023-09-07T00:30:42;5.95;;;4.32;;
1048;SDS011;513;51.444;7.196;2023-09-07T00:33:10;6.10;;;4.20;;
1048;SDS011;513;51.444;7.196;2023-09-07T00:35:37;7.13;;;4.45;;
1048;SDS011;513;51.444;7.196;2023-09-07T00:38:04;5.60;;;4.00;;
1048;SDS011;513;51.444;7.196;2023-09-07T00:40:31;5.07;;;4.03;;
1048;SDS011;513;51.444;7.196;2023-09-07T00:42:58;5.53;;;4.10;;
1048;SDS011;513;51.444;7.196;2023-09-07T00:45:27;7.20;;;4.10;;
1048;SDS011;513;51.444;7.196;2023-09-07T00:47:54;6.78;;;3.97;;
1048;SDS011;513;51.444;7.196;2023-09-07T00:50:21;7.55;;;4.22;;
1048;SDS011;513;51.444;7.196;2023-09-07T00:52:48;5.30;;;4.22;;
1048;SDS011;513;51.444;7.196;2023-09-07T00:55:15;6.10;;;4.43;;
1048;SDS011;513;51.444;7.196;2023-09-07T00:57:42;6.90;;;4.43;;
1048;SDS011;513;51.444;7.196;2023-09-07T01:00:09;5.27;;;3.97;;
1048;SDS011;513;51.444;7.196;2023-09-07T01:02:38;9.55;;;4.30;;
1048;SDS011;513;51.444;7.196;2023-09-07T01:05:07;5.60;;;4.15;;
1048;SDS011;513;51.444;7.196;2023-09-07T01:07:35;8.25;;;4.40;;
1048;SDS011;513;51.444;7.196;2023-09-07T01:10:03;7.43;;;4.30;;
1048;SDS011;513;51.444;7.196;2023-09-07T01:12:30;7.55;;;4.38;;
1048;SDS011;513;51.444;7.196;2023-09-07T01:14:57;6.95;;;4.43;;
1048;SDS011;513;51.444;7.196;2023-09-07T01:17:24;6.45;;;4.18;;
1048;SDS011;513;51.444;7.196;2023-09-07T01:19:53;9.70;;;4.57;;
1048;SDS011;513;51.444;7.196;2023-09-07T01:22:22;9.18;;;4.85;;
1048;SDS011;513;51.444;7.196;2023-09-07T01:24:50;7.53;;;4.50;;
1048;SDS011;513;51.444;7.196;2023-09-07T01:27:17;6.85;;;4.50;;
1048;SDS011;513;51.444;7.196;2023-09-07T01:29:44;8.25;;;4.75;;
1048;SDS011;513;51.444;7.196;2023-09-07T01:32:11;7.82;;;4.68;;
1048;SDS011;513;51.444;7.196;2023-09-07T01:34:38;8.50;;;4.63;;
1048;SDS011;513;51.444;7.196;2023-09-07T01:37:05;7.60;;;4.70;;
1048;SDS011;513;51.444;7.196;2023-09-07T01:39:34;6.95;;;4.90;;
1048;SDS011;513;51.444;7.196;2023-09-07T01:42:01;6.57;;;4.45;;
1048;SDS011;513;51.444;7.196;2023-09-07T01:44:28;5.35;;;4.60;;
1048;SDS011;513;51.444;7.196;2023-09-07T01:46:55;9.48;;;4.68;;
1048;SDS011;513;51.444;7.196;2023-09-07T01:49:22;8.05;;;4.70;;
1048;SDS011;513;51.444;7.196;2023-09-07T01:51:50;10.97;;;4.70;;
1048;SDS011;513;51.444;7.196;2023-09-07T01:54:18;6.35;;;4.40;;
1048;SDS011;513;51.444;7.196;2023-09-07T01:56:46;8.80;;;4.40;;
1048;SDS011;513;51.444;7.196;2023-09-07T01:59:13;5.97;;;4.57;;
1048;SDS011;513;51.444;7.196;2023-09-07T02:01:40;9.02;;;4.60;;
1048;SDS011;513;51.444;7.196;2023-09-07T02:04:07;7.00;;;4.70;;
1048;SDS011;513;51.444;7.196;2023-09-07T02:06:34;5.78;;;4.53;;
1048;SDS011;513;51.444;7.196;2023-09-07T02:09:01;5.50;;;4.78;;
1048;SDS011;513;51.444;7.196;2023-09-07T02:11:29;7.00;;;4.88;;
1048;SDS011;513;51.444;7.196;2023-09-07T02:13:57;7.30;;;4.80;;
1048;SDS011;513;51.444;7.196;2023-09-07T02:16:24;10.15;;;4.97;;
1048;SDS011;513;51.444;7.196;2023-09-07T02:18:59;9.93;;;5.25;;
1048;SDS011;513;51.444;7.196;2023-09-07T02:21:26;9.38;;;5.10;;
1048;SDS011;513;51.444;7.196;2023-09-07T02:23:53;5.75;;;4.60;;
1048;SDS011;513;51.444;7.196;2023-09-07T02:26:20;6.63;;;5.03;;
1048;SDS011;513;51.444;7.196;2023-09-07T02:28:47;9.95;;;5.53;;
1048;SDS011;513;51.444;7.196;2023-09-07T02:31:15;8.70;;;5.10;;
1048;SDS011;513;51.444;7.196;2023-09-07T02:33:42;7.18;;;4.78;;
1048;SDS011;513;51.444;7.196;2023-09-07T02:36:09;8.60;;;5.30;;
1048;SDS011;513;51.444;7.196;2023-09-07T02:38:36;8.85;;;5.00;;
1048;SDS011;513;51.444;7.196;2023-09-07T02:41:03;6.90;;;5.10;;
1048;SDS011;513;51.444;7.196;2023-09-07T02:43:30;6.95;;;5.30;;
1048;SDS011;513;51.444;7.196;2023-09-07T02:45:57;7.67;;;4.67;;
1048;SDS011;513;51.444;7.196;2023-09-07T02:48:26;8.77;;;5.38;;
1048;SDS011;513;51.444;7.196;2023-09-07T02:50:53;6.20;;;5.07;;
1048;SDS011;513;51.444;7.196;2023-09-07T02:53:23;8.48;;;5.10;;
1048;SDS011;513;51.444;7.196;2023-09-07T02:55:50;6.85;;;4.60;;
1048;SDS011;513;51.444;7.196;2023-09-07T02:58:17;6.38;;;5.07;;
1048;SDS011;513;51.444;7.196;2023-09-07T03:00:44;6.00;;;4.70;;
1048;SDS011;513;51.444;7.196;2023-09-07T03:03:12;8.60;;;5.00;;
1048;SDS011;513;51.444;7.196;2023-09-07T03:05:40;7.60;;;5.32;;
1048;SDS011;513;51.444;7.196;2023-09-07T03:08:07;7.40;;;4.80;;
1048;SDS011;513;51.444;7.196;2023-09-07T03:10:34;6.13;;;4.43;;
1048;SDS011;513;51.444;7.196;2023-09-07T03:13:02;7.75;;;4.50;;
1048;SDS011;513;51.444;7.196;2023-09-07T03:15:30;6.72;;;4.50;;
1048;SDS011;513;51.444;7.196;2023-09-07T03:17:57;8.88;;;4.57;;
1048;SDS011;513;51.444;7.196;2023-09-07T03:20:24;5.60;;;4.65;;
1048;SDS011;513;51.444;7.196;2023-09-07T03:22:53;6.68;;;4.90;;
1048;SDS011;513;51.444;7.196;2023-09-07T03:25:21;8.27;;;5.00;;
1048;SDS011;513;51.444;7.196;2023-09-07T03:27:48;5.60;;;4.97;;
1048;SDS011;513;51.444;7.196;2023-09-07T03:30:15;6.18;;;4.60;;
1048;SDS011;513;51.444;7.196;2023-09-07T03:32:42;6.25;;;4.75;;
1048;SDS011;513;51.444;7.196;2023-09-07T03:35:09;6.97;;;4.87;;
1048;SDS011;513;51.444;7.196;2023-09-07T03:37:36;8.60;;;5.13;;
1048;SDS011;513;51.444;7.196;2023-09-07T03:40:05;7.30;;;4.75;;
1048;SDS011;513;51.444;7.196;2023-09-07T03:42:34;6.00;;;4.77;;
1048;SDS011;513;51.444;7.196;2023-09-07T03:45:01;6.45;;;4.97;;
1048;SDS011;513;51.444;7.196;2023-09-07T03:47:28;7.63;;;4.82;;
1048;SDS011;513;51.444;7.196;2023-09-07T03:49:55;9.10;;;5.00;;
1048;SDS011;513;51.444;7.196;2023-09-07T03:52:23;7.35;;;5.38;;
1048;SDS011;513;51.444;7.196;2023-09-07T03:54:51;8.13;;;5.47;;
1048;SDS011;513;51.444;7.196;2023-09-07T03:57:22;6.40;;;5.30;;
1048;SDS011;513;51.444;7.196;2023-09-07T03:59:49;5.90;;;4.90;;
1048;SDS011;513;51.444;7.196;2023-09-07T04:02:16;7.53;;;5.55;;
1048;SDS011;513;51.444;7.196;2023-09-07T04:04:43;8.10;;;5.30;;
1048;SDS011;513;51.444;7.196;2023-09-07T04:07:14;8.02;;;5.05;;
1048;SDS011;513;51.444;7.196;2023-09-07T04:09:41;7.60;;;5.70;;
1048;SDS011;513;51.444;7.196;2023-09-07T04:12:08;7.57;;;5.28;;
1048;SDS011;513;51.444;7.196;2023-09-07T04:14:37;10.52;;;5.65;;
1048;SDS011;513;51.444;7.196;2023-09-07T04:17:04;7.38;;;5.82;;
1048;SDS011;513;51.444;7.196;2023-09-07T04:19:31;9.32;;;5.85;;
1048;SDS011;513;51.444;7.196;2023-09-07T04:21:58;12.82;;;6.25;;
1048;SDS011;513;51.444;7.196;2023-09-07T04:24:25;9.25;;;6.07;;
1048;SDS011;513;51.444;7.196;2023-09-07T04:26:53;8.20;;;6.25;;
1048;SDS011;513;51.444;7.196;2023-09-07T04:29:20;8.23;;;5.90;;
1048;SDS011;513;51.444;7.196;2023-09-07T04:31:48;7.38;;;6.10;;
1048;SDS011;513;51.444;7.196;2023-09-07T04:34:15;12.07;;;6.53;;
1048;SDS011;513;51.444;7.196;2023-09-07T04:36:42;8.88;;;6.07;;
1048;SDS011;513;51.444;7.196;2023-09-07T04:39:10;9.57;;;6.50;;
1048;SDS011;513;51.444;7.196;2023-09-07T04:41:39;9.82;;;6.45;;
1048;SDS011;513;51.444;7.196;2023-09-07T04:44:06;11.50;;;6.20;;
1048;SDS011;513;51.444;7.196;2023-09-07T04:46:33;9.00;;;5.88;;
1048;SDS011;513;51.444;7.196;2023-09-07T04:49:01;12.20;;;6.37;;
1048;SDS011;513;51.444;7.196;2023-09-07T04:51:28;9.50;;;6.10;;
1048;SDS011;513;51.444;7.196;2023-09-07T04:53:55;9.50;;;6.20;;
1048;SDS011;513;51.444;7.196;2023-09-07T04:56:22;10.00;;;6.10;;
1048;SDS011;513;51.444;7.196;2023-09-07T04:58:50;10.18;;;6.32;;
1048;SDS011;513;51.444;7.196;2023-09-07T05:01:17;9.63;;;6.50;;
1048;SDS011;513;51.444;7.196;2023-09-07T05:03:44;9.50;;;6.30;;
1048;SDS011;513;51.444;7.196;2023-09-07T05:06:13;12.77;;;6.40;;
1048;SDS011;513;51.444;7.196;2023-09-07T05:08:40;8.32;;;6.20;;
1048;SDS011;513;51.444;7.196;2023-09-07T05:11:07;9.25;;;6.40;;
1048;SDS011;513;51.444;7.196;2023-09-07T05:13:34;10.05;;;6.65;;
1048;SDS011;513;51.444;7.196;2023-09-07T05:16:01;8.13;;;6.20;;
1048;SDS011;513;51.444;7.196;2023-09-07T05:18:29;9.93;;;6.57;;
1048;SDS011;513;51.444;7.196;2023-09-07T05:20:56;10.38;;;6.50;;
1048;SDS011;513;51.444;7.196;2023-09-07T05:23:25;7.80;;;6.07;;
1048;SDS011;513;51.444;7.196;2023-09-07T05:25:53;7.28;;;5.85;;
1048;SDS011;513;51.444;7.196;2023-09-07T05:28:21;9.52;;;6.50;;
1048;SDS011;513;51.444;7.196;2023-09-07T05:30:48;8.45;;;6.10;;
1048;SDS011;513;51.444;7.196;2023-09-07T05:33:15;9.17;;;6.23;;
1048;SDS011;513;51.444;7.196;2023-09-07T05:35:43;9.52;;;6.20;;
1048;SDS011;513;51.444;7.196;2023-09-07T05:38:11;8.05;;;6.30;;
1048;SDS011;513;51.444;7.196;2023-09-07T05:40:40;10.57;;;5.97;;
1048;SDS011;513;51.444;7.196;2023-09-07T05:43:07;8.13;;;5.25;;
1048;SDS011;513;51.444;7.196;2023-09-07T05:45:34;8.13;;;5.93;;
1048;SDS011;513;51.444;7.196;2023-09-07T05:48:02;6.68;;;5.20;;
1048;SDS011;513;51.444;7.196;2023-09-07T05:50:29;8.35;;;5.28;;
1048;SDS011;513;51.444;7.196;2023-09-07T05:52:56;7.63;;;5.35;;
1048;SDS011;513;51.444;7.196;2023-09-07T05:55:23;6.03;;;4.90;;
1048;SDS011;513;51.444;7.196;2023-09-07T05:57:53;8.70;;;5.00;;
1048;SDS011;513;51.444;7.196;2023-09-07T06:00:20;7.28;;;4.70;;
1048;SDS011;513;51.444;7.196;2023-09-07T06:02:48;6.50;;;5.00;;
1048;SDS011;513;51.444;7.196;2023-09-07T06:05:15;7.20;;;5.35;;
1048;SDS011;513;51.444;7.196;2023-09-07T06:07:43;8.63;;;5.38;;
1048;SDS011;513;51.444;7.196;2023-09-07T06:10:10;8.18;;;5.30;;
1048;SDS011;513;51.444;7.196;2023-09-07T06:12:39;7.20;;;5.40;;
1048;SDS011;513;51.444;7.196;2023-09-07T06:15:08;5.90;;;5.25;;
1048;SDS011;513;51.444;7.196;2023-09-07T06:17:35;8.25;;;5.40;;
1048;SDS011;513;51.444;7.196;2023-09-07T06:20:02;9.55;;;5.50;;
1048;SDS011;513;51.444;7.196;2023-09-07T06:22:30;6.25;;;5.10;;
1048;SDS011;513;51.444;7.196;2023-09-07T06:24:57;5.50;;;4.68;;
1048;SDS011;513;51.444;7.196;2023-09-07T06:27:24;5.97;;;5.00;;
1048;SDS011;513;51.444;7.196;2023-09-07T06:29:51;6.88;;;4.63;;
1048;SDS011;513;51.444;7.196;2023-09-07T06:32:20;7.05;;;4.50;;
1048;SDS011;513;51.444;7.196;2023-09-07T06:34:47;8.98;;;5.00;;
1048;SDS011;513;51.444;7.196;2023-09-07T06:37:14;7.03;;;4.78;;
1048;SDS011;513;51.444;7.196;2023-09-07T06:39:41;7.28;;;4.65;;
1048;SDS011;513;51.444;7.196;2023-09-07T06:42:08;8.00;;;4.90;;
1048;SDS011;513;51.444;7.196;2023-09-07T06:44:36;5.18;;;4.55;;
1048;SDS011;513;51.444;7.196;2023-09-07T06:47:03;6.53;;;4.60;;
1048;SDS011;513;51.444;7.196;2023-09-07T06:49:31;5.57;;;4.30;;
1048;SDS011;513;51.444;7.196;2023-09-07T06:51:58;5.38;;;4.60;;
1048;SDS011;513;51.444;7.196;2023-09-07T06:54:28;7.00;;;4.70;;
1048;SDS011;513;51.444;7.196;2023-09-07T06:56:55;7.45;;;5.30;;
1048;SDS011;513;51.444;7.196;2023-09-07T06:59:22;7.63;;;5.15;;
1048;SDS011;513;51.444;7.196;2023-09-07T07:01:49;7.07;;;5.25;;
1048;SDS011;513;51.444;7.196;2023-09-07T07:04:16;9.05;;;5.65;;
1048;SDS011;513;51.444;7.196;2023-09-07T07:06:45;8.30;;;5.32;;
1048;SDS011;513;51.444;7.196;2023-09-07T07:09:12;8.07;;;5.00;;
1048;SDS011;513;51.444;7.196;2023-09-07T07:11:39;8.15;;;5.13;;
1048;SDS011;513;51.444;7.196;2023-09-07T07:14:07;7.80;;;5.05;;
1048;SDS011;513;51.444;7.196;2023-09-07T07:16:36;7.63;;;5.30;;
1048;SDS011;513;51.444;7.196;2023-09-07T07:19:03;10.05;;;5.82;;
1048;SDS011;513;51.444;7.196;2023-09-07T07:21:30;8.02;;;5.13;;
1048;SDS011;513;51.444;7.196;2023-09-07T07:23:58;7.63;;;4.93;;
1048;SDS011;513;51.444;7.196;2023-09-07T07:26:25;6.15;;;4.90;;
1048;SDS011;513;51.444;7.196;2023-09-07T07:28:52;6.03;;;4.25;;
1048;SDS011;513;51.444;7.196;2023-09-07T07:31:19;6.75;;;4.20;;
1048;SDS011;513;51.444;7.196;2023-09-07T07:33:46;7.13;;;4.22;;
1048;SDS011;513;51.444;7.196;2023-09-07T07:36:14;6.65;;;4.35;;
1048;SDS011;513;51.444;7.196;2023-09-07T07:38:41;4.97;;;4.15;;
1048;SDS011;513;51.444;7.196;2023-09-07T07:41:09;4.85;;;4.35;;
1048;SDS011;513;51.444;7.196;2023-09-07T07:43:36;5.18;;;4.03;;
1048;SDS011;513;51.444;7.196;2023-09-07T07:46:03;5.85;;;4.38;;
1048;SDS011;513;51.444;7.196;2023-09-07T07:48:30;7.90;;;4.47;;
1048;SDS011;513;51.444;7.196;2023-09-07T07:51:02;6.95;;;4.40;;
1048;SDS011;513;51.444;7.196;2023-09-07T07:53:29;5.93;;;4.03;;
1048;SDS011;513;51.444;7.196;2023-09-07T07:55:56;6.57;;;4.30;;
1048;SDS011;513;51.444;7.196;2023-09-07T07:58:25;6.57;;;3.90;;
1048;SDS011;513;51.444;7.196;2023-09-07T08:00:52;6.10;;;4.22;;
1048;SDS011;513;51.444;7.196;2023-09-07T08:03:22;6.93;;;4.10;;
1048;SDS011;513;51.444;7.196;2023-09-07T08:05:50;7.65;;;4.25;;
1048;SDS011;513;51.444;7.196;2023-09-07T08:08:17;5.95;;;4.30;;
1048;SDS011;513;51.444;7.196;2023-09-07T08:10:44;8.07;;;4.38;;
1048;SDS011;513;51.444;7.196;2023-09-07T08:13:11;9.67;;;4.53;;
1048;SDS011;513;51.444;7.196;2023-09-07T08:15:40;13.63;;;4.53;;
1048;SDS011;513;51.444;7.196;2023-09-07T08:18:07;9.73;;;4.55;;
1048;SDS011;513;51.444;7.196;2023-09-07T08:20:35;8.90;;;4.47;;
1048;SDS011;513;51.444;7.196;2023-09-07T08:23:03;10.53;;;4.53;;
1048;SDS011;513;51.444;7.196;2023-09-07T08:25:33;4.90;;;4.05;;
1048;SDS011;513;51.444;7.196;2023-09-07T08:28:00;5.13;;;4.25;;
1048;SDS011;513;51.444;7.196;2023-09-07T08:30:30;5.63;;;4.30;;
1048;SDS011;513;51.444;7.196;2023-09-07T08:32:58;5.88;;;4.15;;
1048;SDS011;513;51.444;7.196;2023-09-07T08:35:27;7.70;;;4.10;;
1048;SDS011;513;51.444;7.196;2023-09-07T08:37:55;5.43;;;4.60;;
1048;SDS011;513;51.444;7.196;2023-09-07T08:40:23;6.57;;;4.00;;
1048;SDS011;513;51.444;7.196;2023-09-07T08:42:52;9.50;;;4.10;;
1048;SDS011;513;51.444;7.196;2023-09-07T08:45:20;6.85;;;4.15;;
1048;SDS011;513;51.444;7.196;2023-09-07T08:47:48;4.22;;;3.58;;
1048;SDS011;513;51.444;7.196;2023-09-07T08:50:17;5.40;;;3.88;;
1048;SDS011;513;51.444;7.196;2023-09-07T08:52:44;6.57;;;4.37;;
1048;SDS011;513;51.444;7.196;2023-09-07T08:55:11;5.18;;;3.78;;
1048;SDS011;513;51.444;7.196;2023-09-07T08:57:39;5.35;;;4.20;;
1048;SDS011;513;51.444;7.196;2023-09-07T09:00:06;8.57;;;4.20;;
1048;SDS011;513;51.444;7.196;2023-09-07T09:02:39;7.57;;;4.17;;
1048;SDS011;513;51.444;7.196;2023-09-07T09:05:06;5.22;;;3.72;;
1048;SDS011;513;51.444;7.196;2023-09-07T09:07:36;6.53;;;4.07;;
1048;SDS011;513;51.444;7.196;2023-09-07T09:10:04;5.63;;;4.07;;
1048;SDS011;513;51.444;7.196;2023-09-07T09:12:31;6.28;;;4.10;;
1048;SDS011;513;51.444;7.196;2023-09-07T09:14:58;5.10;;;4.00;;
1048;SDS011;513;51.444;7.196;2023-09-07T09:17:25;5.03;;;4.50;;
1048;SDS011;513;51.444;7.196;2023-09-07T09:19:52;6.57;;;4.28;;
1048;SDS011;513;51.444;7.196;2023-09-07T09:22:20;8.57;;;4.22;;
1048;SDS011;513;51.444;7.196;2023-09-07T09:24:48;5.43;;;4.03;;
1048;SDS011;513;51.444;7.196;2023-09-07T09:27:15;6.30;;;4.10;;
1048;SDS011;513;51.444;7.196;2023-09-07T09:29:43;6.63;;;4.35;;
1048;SDS011;513;51.444;7.196;2023-09-07T09:32:13;5.72;;;3.92;;
1048;SDS011;513;51.444;7.196;2023-09-07T09:34:43;6.47;;;4.75;;
1048;SDS011;513;51.444;7.196;2023-09-07T09:37:13;6.28;;;4.22;;
1048;SDS011;513;51.444;7.196;2023-09-07T09:39:41;6.35;;;5.30;;
1048;SDS011;513;51.444;7.196;2023-09-07T09:42:10;7.35;;;4.65;;
1048;SDS011;513;51.444;7.196;2023-09-07T09:44:37;6.88;;;4.43;;
1048;SDS011;513;51.444;7.196;2023-09-07T09:47:04;6.15;;;4.18;;
1048;SDS011;513;51.444;7.196;2023-09-07T09:49:32;10.25;;;4.78;;
1048;SDS011;513;51.444;7.196;2023-09-07T09:52:00;6.88;;;4.30;;
1048;SDS011;513;51.444;7.196;2023-09-07T09:54:27;8.77;;;4.70;;
1048;SDS011;513;51.444;7.196;2023-09-07T09:56:54;7.85;;;4.75;;
1048;SDS011;513;51.444;7.196;2023-09-07T09:59:22;6.53;;;4.70;;
1048;SDS011;513;51.444;7.196;2023-09-07T10:01:49;7.37;;;4.47;;
1048;SDS011;513;51.444;7.196;2023-09-07T10:04:19;8.88;;;4.47;;
1048;SDS011;513;51.444;7.196;2023-09-07T10:06:53;8.60;;;4.65;;
1048;SDS011;513;51.444;7.196;2023-09-07T10:09:21;11.23;;;6.57;;
1048;SDS011;513;51.444;7.196;2023-09-07T10:11:51;9.45;;;6.50;;
1048;SDS011;513;51.444;7.196;2023-09-07T10:14:18;7.05;;;5.07;;
1048;SDS011;513;51.444;7.196;2023-09-07T10:16:47;6.90;;;4.30;;
1048;SDS011;513;51.444;7.196;2023-09-07T10:19:15;7.43;;;5.00;;
1048;SDS011;513;51.444;7.196;2023-09-07T10:21:42;7.90;;;5.00;;
1048;SDS011;513;51.444;7.196;2023-09-07T10:24:09;8.80;;;5.15;;
1048;SDS011;513;51.444;7.196;2023-09-07T10:26:36;7.43;;;4.50;;
1048;SDS011;513;51.444;7.196;2023-09-07T10:29:03;6.85;;;4.55;;
1048;SDS011;513;51.444;7.196;2023-09-07T10:31:30;6.22;;;4.28;;
1048;SDS011;513;51.444;7.196;2023-09-07T10:34:08;6.07;;;4.57;;
1048;SDS011;513;51.444;7.196;2023-09-07T10:36:37;6.57;;;4.67;;
1048;SDS011;513;51.444;7.196;2023-09-07T10:39:04;7.88;;;4.30;;
1048;SDS011;513;51.444;7.196;2023-09-07T10:41:39;5.63;;;4.38;;
1048;SDS011;513;51.444;7.196;2023-09-07T10:44:07;7.93;;;5.00;;
1048;SDS011;513;51.444;7.196;2023-09-07T10:46:35;15.07;;;5.00;;
1048;SDS011;513;51.444;7.196;2023-09-07T10:49:03;8.05;;;4.60;;
1048;SDS011;513;51.444;7.196;2023-09-07T10:51:34;7.25;;;4.53;;
1048;SDS011;513;51.444;7.196;2023-09-07T10:54:12;8.90;;;4.60;;
1048;SDS011;513;51.444;7.196;2023-09-07T10:56:40;6.15;;;4.63;;
1048;SDS011;513;51.444;7.196;2023-09-07T10:59:07;6.40;;;4.57;;
1048;SDS011;513;51.444;7.196;2023-09-07T11:01:34;6.38;;;4.50;;
1048;SDS011;513;51.444;7.196;2023-09-07T11:04:01;7.43;;;4.25;;
1048;SDS011;513;51.444;7.196;2023-09-07T11:06:30;6.13;;;4.60;;
1048;SDS011;513;51.444;7.196;2023-09-07T11:09:00;8.30;;;4.70;;
1048;SDS011;513;51.444;7.196;2023-09-07T11:11:31;5.90;;;4.70;;
1048;SDS011;513;51.444;7.196;2023-09-07T11:13:59;5.57;;;4.55;;
1048;SDS011;513;51.444;7.196;2023-09-07T11:16:26;6.53;;;4.40;;
1048;SDS011;513;51.444;7.196;2023-09-07T11:18:53;5.73;;;4.43;;
1048;SDS011;513;51.444;7.196;2023-09-07T11:21:20;9.48;;;4.47;;
1048;SDS011;513;51.444;7.196;2023-09-07T11:23:47;5.60;;;4.32;;
1048;SDS011;513;51.444;7.196;2023-09-07T11:26:15;5.78;;;4.10;;
1048;SDS011;513;51.444;7.196;2023-09-07T11:28:44;6.67;;;4.50;;
1048;SDS011;513;51.444;7.196;2023-09-07T11:31:12;6.53;;;4.15;;
1048;SDS011;513;51.444;7.196;2023-09-07T11:33:40;5.78;;;4.00;;
1048;SDS011;513;51.444;7.196;2023-09-07T11:36:07;5.40;;;4.40;;
1048;SDS011;513;51.444;7.196;2023-09-07T11:38:36;4.75;;;4.20;;
1048;SDS011;513;51.444;7.196;2023-09-07T11:41:04;5.88;;;4.18;;
1048;SDS011;513;51.444;7.196;2023-09-07T11:43:32;5.78;;;4.07;;
1048;SDS011;513;51.444;7.196;2023-09-07T11:45:59;6.72;;;3.88;;
1048;SDS011;513;51.444;7.196;2023-09-07T11:48:28;6.93;;;4.38;;
1048;SDS011;513;51.444;7.196;2023-09-07T11:50:57;5.97;;;4.20;;
1048;SDS011;513;51.444;7.196;2023-09-07T11:53:24;6.15;;;4.43;;
1048;SDS011;513;51.444;7.196;2023-09-07T11:55:51;5.15;;;4.13;;
1048;SDS011;513;51.444;7.196;2023-09-07T11:58:18;5.55;;;4.20;;
1048;SDS011;513;51.444;7.196;2023-09-07T12:00:46;5.45;;;4.30;;
1048;SDS011;513;51.444;7.196;2023-09-07T12:03:14;5.70;;;4.38;;
1048;SDS011;513;51.444;7.196;2023-09-07T12:05:41;5.82;;;4.25;;
1048;SDS011;513;51.444;7.196;2023-09-07T12:08:09;4.40;;;4.00;;
1048;SDS011;513;51.444;7.196;2023-09-07T12:10:36;5.65;;;4.18;;
1048;SDS011;513;51.444;7.196;2023-09-07T12:13:03;6.18;;;4.53;;
1048;SDS011;513;51.444;7.196;2023-09-07T12:15:30;4.90;;;4.40;;
1048;SDS011;513;51.444;7.196;2023-09-07T12:17:58;7.28;;;4.35;;
1048;SDS011;513;51.444;7.196;2023-09-07T12:20:25;4.80;;;4.07;;
1048;SDS011;513;51.444;7.196;2023-09-07T12:22:53;4.70;;;4.30;;
1048;SDS011;513;51.444;7.196;2023-09-07T12:25:20;5.63;;;4.32;;
1048;SDS011;513;51.444;7.196;2023-09-07T12:27:47;5.80;;;4.10;;
1048;SDS011;513;51.444;7.196;2023-09-07T12:30:15;5.47;;;4.27;;
1048;SDS011;513;51.444;7.196;2023-09-07T12:32:43;8.18;;;4.78;;
1048;SDS011;513;51.444;7.196;2023-09-07T12:35:12;5.57;;;4.28;;
1048;SDS011;513;51.444;7.196;2023-09-07T12:37:40;9.90;;;4.82;;
1048;SDS011;513;51.444;7.196;2023-09-07T12:40:07;6.70;;;4.40;;
1048;SDS011;513;51.444;7.196;2023-09-07T12:42:38;5.10;;;4.60;;
1048;SDS011;513;51.444;7.196;2023-09-07T12:45:06;7.22;;;4.55;;
1048;SDS011;513;51.444;7.196;2023-09-07T12:47:33;6.70;;;4.80;;
1048;SDS011;513;51.444;7.196;2023-09-07T12:50:00;5.97;;;4.40;;
1048;SDS011;513;51.444;7.196;2023-09-07T12:52:29;8.43;;;4.88;;
1048;SDS011;513;51.444;7.196;2023-09-07T12:54:56;6.75;;;4.63;;
1048;SDS011;513;51.444;7.196;2023-09-07T12:57:23;7.30;;;4.68;;
1048;SDS011;513;51.444;7.196;2023-09-07T12:59:50;4.88;;;4.35;;
1048;SDS011;513;51.444;7.196;2023-09-07T13:02:17;4.95;;;4.22;;
1048;SDS011;513;51.444;7.196;2023-09-07T13:04:44;5.47;;;4.43;;
1048;SDS011;513;51.444;7.196;2023-09-07T13:07:10;5.85;;;4.30;;
1048;SDS011;513;51.444;7.196;2023-09-07T13:09:39;7.05;;;4.70;;
1048;SDS011;513;51.444;7.196;2023-09-07T13:12:06;5.68;;;5.15;;
1048;SDS011;513;51.444;7.196;2023-09-07T13:14:33;7.80;;;4.70;;
1048;SDS011;513;51.444;7.196;2023-09-07T13:17:00;9.07;;;4.75;;
1048;SDS011;513;51.444;7.196;2023-09-07T13:19:27;6.55;;;4.43;;
1048;SDS011;513;51.444;7.196;2023-09-07T13:21:54;8.20;;;4.63;;
1048;SDS011;513;51.444;7.196;2023-09-07T13:24:21;6.50;;;4.50;;
1048;SDS011;513;51.444;7.196;2023-09-07T13:26:50;7.25;;;4.70;;
1048;SDS011;513;51.444;7.196;2023-09-07T13:29:17;11.88;;;4.80;;
1048;SDS011;513;51.444;7.196;2023-09-07T13:31:44;7.72;;;4.28;;
1048;SDS011;513;51.444;7.196;2023-09-07T13:34:12;7.38;;;4.50;;
1048;SDS011;513;51.444;7.196;2023-09-07T13:36:38;6.30;;;4.70;;
1048;SDS011;513;51.444;7.196;2023-09-07T13:39:05;4.95;;;4.32;;
1048;SDS011;513;51.444;7.196;2023-09-07T13:41:32;5.63;;;4.20;;
1048;SDS011;513;51.444;7.196;2023-09-07T13:44:02;6.97;;;4.80;;
1048;SDS011;513;51.444;7.196;2023-09-07T13:46:29;6.30;;;4.65;;
1048;SDS011;513;51.444;7.196;2023-09-07T13:48:56;8.55;;;4.68;;
1048;SDS011;513;51.444;7.196;2023-09-07T13:51:23;7.82;;;4.55;;
1048;SDS011;513;51.444;7.196;2023-09-07T13:53:50;6.18;;;4.50;;
1048;SDS011;513;51.444;7.196;2023-09-07T13:56:17;7.95;;;4.40;;
1048;SDS011;513;51.444;7.196;2023-09-07T13:58:44;7.10;;;4.90;;
1048;SDS011;513;51.444;7.196;2023-09-07T14:01:13;5.87;;;4.87;;
1048;SDS011;513;51.444;7.196;2023-09-07T14:03:40;11.98;;;5.00;;
1048;SDS011;513;51.444;7.196;2023-09-07T14:06:07;8.88;;;4.60;;
1048;SDS011;513;51.444;7.196;2023-09-07T14:08:34;5.65;;;4.50;;
1048;SDS011;513;51.444;7.196;2023-09-07T14:11:01;5.75;;;4.60;;
1048;SDS011;513;51.444;7.196;2023-09-07T14:13:28;8.45;;;4.50;;
1048;SDS011;513;51.444;7.196;2023-09-07T14:15:55;9.55;;;4.82;;
1048;SDS011;513;51.444;7.196;2023-09-07T14:18:23;5.22;;;4.55;;
1048;SDS011;513;51.444;7.196;2023-09-07T14:20:50;6.50;;;4.90;;
1048;SDS011;513;51.444;7.196;2023-09-07T14:23:17;5.95;;;4.85;;
1048;SDS011;513;51.444;7.196;2023-09-07T14:25:45;6.20;;;4.47;;
1048;SDS011;513;51.444;7.196;2023-09-07T14:28:13;5.05;;;4.55;;
1048;SDS011;513;51.444;7.196;2023-09-07T14:30:40;7.80;;;4.50;;
1048;SDS011;513;51.444;7.196;2023-09-07T14:33:07;5.97;;;4.97;;
1048;SDS011;513;51.444;7.196;2023-09-07T14:35:36;7.47;;;4.90;;
1048;SDS011;513;51.444;7.196;2023-09-07T14:38:03;8.70;;;4.60;;
1048;SDS011;513;51.444;7.196;2023-09-07T14:40:30;6.10;;;4.50;;
1048;SDS011;513;51.444;7.196;2023-09-07T14:42:57;5.77;;;4.47;;
1048;SDS011;513;51.444;7.196;2023-09-07T14:45:24;5.10;;;4.60;;
1048;SDS011;513;51.444;7.196;2023-09-07T14:47:51;6.13;;;4.30;;
1048;SDS011;513;51.444;7.196;2023-09-07T14:50:18;7.15;;;4.45;;
1048;SDS011;513;51.444;7.196;2023-09-07T14:52:46;8.43;;;4.35;;
1048;SDS011;513;51.444;7.196;2023-09-07T14:55:14;6.65;;;4.40;;
1048;SDS011;513;51.444;7.196;2023-09-07T14:57:41;5.68;;;4.43;;
1048;SDS011;513;51.444;7.196;2023-09-07T15:00:08;6.15;;;4.28;;
1048;SDS011;513;51.444;7.196;2023-09-07T15:02:36;6.22;;;4.28;;
1048;SDS011;513;51.444;7.196;2023-09-07T15:05:03;5.30;;;3.92;;
1048;SDS011;513;51.444;7.196;2023-09-07T15:07:30;5.65;;;4.32;;
1048;SDS011;513;51.444;7.196;2023-09-07T15:09:59;5.03;;;4.28;;
1048;SDS011;513;51.444;7.196;2023-09-07T15:12:26;5.85;;;4.28;;
1048;SDS011;513;51.444;7.196;2023-09-07T15:14:53;7.90;;;3.92;;
1048;SDS011;513;51.444;7.196;2023-09-07T15:17:20;6.68;;;3.83;;
1048;SDS011;513;51.444;7.196;2023-09-07T15:19:47;7.53;;;4.00;;
1048;SDS011;513;51.444;7.196;2023-09-07T15:22:14;6.05;;;4.13;;
1048;SDS011;513;51.444;7.196;2023-09-07T15:24:41;5.43;;;4.25;;
1048;SDS011;513;51.444;7.196;2023-09-07T15:27:09;4.70;;;4.10;;
1048;SDS011;513;51.444;7.196;2023-09-07T15:29:37;7.18;;;4.00;;
1048;SDS011;513;51.444;7.196;2023-09-07T15:32:04;7.20;;;4.13;;